Ridgewood, NJ

10:50 AM EST on March 02, 2015 (GMT -0500)
La Guardia | Change Station
CLOSE
Current Station
Airport
Location: New York,
Elevation: 30 ft
Nearby Weather Stations

Elev 30 ft 40.78 °N, 73.88 °W | Updated 59 minutes ago

Overcast
Overcast
34 °F
Feels Like 22 °F
N
24
Wind Variable Wind from NW
Gusts 30 mph

Today
High -- | Low -- °F
--% Chance of Precip.
Yesterday
High -- | Low -- °F
Precip. -- in
6:29 AM 5:48 PM
Waxing Gibbous, 92% visible
Pressure 30.12 in
Visibility 10.0 miles
Clouds Few 3300 ft
Scattered Clouds 4500 ft
Mostly Cloudy 24000 ft
Windchill 22 °F
Dew Point 23 °F
Humidity 64%
Rainfall 0.00 in
Snow Depth Not available.
UV 2 out of 12
Pollen .50 out of 12
Air Quality Not available.
Flu Activity Not available.
METAR KLGA 021451Z 32021G26KT 10SM FEW033 SCT045 BKN240 01/M05 A3012 RMK AO2 PK WND 31027/1428 SLP199 T00111050 51029

More Conditions Fewer Conditions

Pressure 30.12 in
Visibility 10.0 miles
Clouds Few 3300 ft
Scattered Clouds 4500 ft
Mostly Cloudy 24000 ft
Windchill 22 °F
Dew Point 23 °F
Humidity 64%
Rainfall 0.00 in
Snow Depth Not available.
UV 2 out of 12
Pollen .50 out of 12
Air Quality Not available.
Flu Activity Not available.
METAR KLGA 021451Z 32021G26KT 10SM FEW033 SCT045 BKN240 01/M05 A3012 RMK AO2 PK WND 31027/1428 SLP199 T00111050 51029

More Conditions Fewer Conditions

10-Day Weather Forecast

Almanac

Astronomy

Mar. 02, 2015 Rise Set
Actual Time
Civil Twilight
Nautical Twilight
Astronomical Twilight
Moon
Length of Visible Light
Length of Day
Tomorrow will be .
, % of the Moon is Illuminated

Today's Extremes

State Highs State Lows

Community

WunderPhotos

Upload Photos

1,801,823 photos uploaded!

WunderBlogs® & News

Nearby

Air Quality

  Air Quality AQ Index Pollutant
Not available.

Snow Depth

Station Depth Elevation

Earthquake Activity

City Distance Mag. Time & Date
Minimum magnitude displayed is 2.5.

Coastal Water Temperatures

Place Temperature

Nearby Weather Stations